createdAt,value
2019-02-16T00:00:21.346Z,24.90
2019-02-16T00:02:54.380Z,27.53
2019-02-16T00:05:26.804Z,29.50
2019-02-16T00:07:58.159Z,39.57
2019-02-16T00:10:30.743Z,33.80
2019-02-16T00:13:02.134Z,25.27
2019-02-16T00:15:34.728Z,15.70
2019-02-16T00:18:06.241Z,15.30
2019-02-16T00:20:37.691Z,16.20
2019-02-16T00:23:09.175Z,14.43
2019-02-16T00:25:40.543Z,16.60
2019-02-16T00:28:11.996Z,12.73
2019-02-16T00:30:43.460Z,16.60
2019-02-16T00:33:14.887Z,22.90
2019-02-16T00:35:46.373Z,17.47
2019-02-16T00:38:17.805Z,16.43
2019-02-16T00:40:49.277Z,17.60
2019-02-16T00:43:20.716Z,15.40
2019-02-16T00:45:52.156Z,17.40
2019-02-16T00:48:23.609Z,15.37
2019-02-16T00:50:55.073Z,15.70
2019-02-16T00:53:28.213Z,21.13
2019-02-16T00:55:59.698Z,17.63
2019-02-16T00:58:31.035Z,15.63
2019-02-16T01:01:02.506Z,19.50
2019-02-16T01:03:33.905Z,16.43
2019-02-16T01:06:06.375Z,14.63
2019-02-16T01:08:37.837Z,19.53
2019-02-16T01:11:09.807Z,18.23
2019-02-16T01:13:41.289Z,21.47
2019-02-16T01:16:13.820Z,14.53
2019-02-16T01:18:45.204Z,13.47
2019-02-16T01:21:22.584Z,12.40
2019-02-16T01:23:49.791Z,12.73
2019-02-16T01:26:21.288Z,16.83
2019-02-16T01:28:52.913Z,13.73
2019-02-16T01:31:24.371Z,15.43
2019-02-16T01:33:58.150Z,13.10
2019-02-16T01:36:29.690Z,12.70
2019-02-16T01:39:01.134Z,14.57
2019-02-16T01:41:34.185Z,18.03
2019-02-16T01:44:06.348Z,13.30
2019-02-16T01:46:37.818Z,14.80
2019-02-16T01:49:09.237Z,12.37
2019-02-16T01:51:40.690Z,12.23
2019-02-16T01:54:12.148Z,14.70
2019-02-16T01:56:43.686Z,13.87
2019-02-16T01:59:15.130Z,10.93
2019-02-16T02:01:46.598Z,10.33
2019-02-16T02:04:18.043Z,12.73
2019-02-16T02:06:49.524Z,11.50
2019-02-16T02:09:20.971Z,12.00
2019-02-16T02:11:52.452Z,14.63
2019-02-16T02:14:23.906Z,10.20
2019-02-16T02:16:55.370Z,17.00
2019-02-16T02:19:26.805Z,14.37
2019-02-16T02:21:58.261Z,15.43
2019-02-16T02:24:29.696Z,14.50
2019-02-16T02:27:01.159Z,14.10
2019-02-16T02:29:32.577Z,10.60
2019-02-16T02:32:04.075Z,16.33
2019-02-16T02:34:35.555Z,9.77
2019-02-16T02:37:07.018Z,14.70
2019-02-16T02:39:38.435Z,13.83
2019-02-16T02:42:09.882Z,15.37
2019-02-16T02:44:41.319Z,15.63
2019-02-16T02:47:12.763Z,14.73
2019-02-16T02:49:44.213Z,14.07
2019-02-16T02:52:15.682Z,10.80
2019-02-16T02:54:47.098Z,12.20
2019-02-16T02:57:18.544Z,11.00
2019-02-16T02:59:52.758Z,10.13
2019-02-16T03:02:24.198Z,19.50
2019-02-16T03:04:55.556Z,12.17
2019-02-16T03:07:27.098Z,11.00
2019-02-16T03:09:58.492Z,13.63
2019-02-16T03:12:29.960Z,14.33
2019-02-16T03:15:01.344Z,14.47
2019-02-16T03:17:32.984Z,9.67
2019-02-16T03:20:04.856Z,12.17
2019-02-16T03:23:14.294Z,12.20
2019-02-16T03:26:40.910Z,12.43
2019-02-16T03:29:41.457Z,10.37
2019-02-16T03:33:09.813Z,13.53
2019-02-16T03:36:33.715Z,10.30
2019-02-16T03:39:19.474Z,8.13
2019-02-16T03:41:50.843Z,15.13
2019-02-16T03:44:22.291Z,14.00
2019-02-16T03:46:53.726Z,12.27
2019-02-16T03:49:25.095Z,10.30
2019-02-16T03:51:56.512Z,14.90
2019-02-16T03:54:27.902Z,10.90
2019-02-16T03:56:59.362Z,14.37
2019-02-16T03:59:33.146Z,9.23
2019-02-16T04:02:06.626Z,10.03
2019-02-16T04:04:37.758Z,10.83
2019-02-16T04:07:09.128Z,13.00
2019-02-16T04:09:40.616Z,17.07
2019-02-16T04:12:12.028Z,9.60
2019-02-16T04:14:43.519Z,8.97
2019-02-16T04:17:14.956Z,12.63
2019-02-16T04:19:46.601Z,15.40
2019-02-16T04:22:24.603Z,12.73
2019-02-16T04:24:51.122Z,11.70
2019-02-16T04:27:22.558Z,10.93
2019-02-16T04:29:54.033Z,10.00
2019-02-16T04:32:25.396Z,12.50
2019-02-16T04:34:56.854Z,12.43
2019-02-16T04:37:28.328Z,26.20
2019-02-16T04:40:01.287Z,8.73
2019-02-16T04:42:32.688Z,15.67
2019-02-16T04:45:04.376Z,14.50
2019-02-16T04:47:35.801Z,12.43
2019-02-16T04:50:07.301Z,19.90
2019-02-16T04:52:38.746Z,12.63
2019-02-16T04:55:13.493Z,12.50
2019-02-16T04:57:44.949Z,12.67
2019-02-16T05:00:16.715Z,15.33
2019-02-16T05:02:48.331Z,10.07
2019-02-16T05:05:19.824Z,13.23
2019-02-16T05:07:51.284Z,15.27
2019-02-16T05:10:22.731Z,10.00
2019-02-16T05:12:54.191Z,11.40
2019-02-16T05:15:25.685Z,15.07
2019-02-16T05:17:57.150Z,11.93
2019-02-16T05:20:29.595Z,12.70
2019-02-16T05:23:00.931Z,10.87
2019-02-16T05:25:32.400Z,11.00
2019-02-16T05:28:03.772Z,11.57
2019-02-16T05:30:35.251Z,13.00
2019-02-16T05:33:06.688Z,10.50
2019-02-16T05:35:38.738Z,16.80
2019-02-16T05:38:10.177Z,17.53
2019-02-16T05:40:41.646Z,13.93
2019-02-16T05:43:14.676Z,11.23
2019-02-16T05:45:46.181Z,10.50
2019-02-16T05:48:17.607Z,20.40
2019-02-16T05:50:49.072Z,14.20
2019-02-16T05:53:20.475Z,11.70
2019-02-16T05:55:51.919Z,13.87
2019-02-16T05:58:23.359Z,14.13
2019-02-16T06:00:54.824Z,14.40
2019-02-16T06:03:26.160Z,14.33
2019-02-16T06:05:59.091Z,20.80
2019-02-16T06:08:33.400Z,20.13
2019-02-16T06:11:05.965Z,17.00
2019-02-16T06:13:39.729Z,11.90
2019-02-16T06:16:11.138Z,13.10
2019-02-16T06:18:42.608Z,11.20
2019-02-16T06:21:14.071Z,15.67
2019-02-16T06:23:45.510Z,11.47
2019-02-16T06:26:16.955Z,22.10
2019-02-16T06:28:48.401Z,12.47
2019-02-16T06:31:19.867Z,13.20
2019-02-16T06:33:51.253Z,12.90
2019-02-16T06:36:30.234Z,14.80
2019-02-16T06:39:01.679Z,16.30
2019-02-16T06:41:34.346Z,14.97
2019-02-16T06:44:05.807Z,15.50
2019-02-16T06:46:37.289Z,15.43
2019-02-16T06:49:08.647Z,16.43
2019-02-16T06:51:40.101Z,12.70
2019-02-16T06:54:11.567Z,13.37
2019-02-16T06:57:00.861Z,19.63
2019-02-16T06:59:32.294Z,14.90
2019-02-16T07:02:03.769Z,13.70
2019-02-16T07:04:39.015Z,12.87
2019-02-16T07:07:10.487Z,14.53
2019-02-16T07:09:41.935Z,16.80
2019-02-16T07:12:13.383Z,21.83
2019-02-16T07:14:44.733Z,19.97
2019-02-16T07:17:44.344Z,21.53
2019-02-16T07:20:17.829Z,16.47
2019-02-16T07:22:49.190Z,18.37
2019-02-16T07:25:20.934Z,15.40
2019-02-16T07:27:54.701Z,16.23
2019-02-16T07:30:26.096Z,15.70
2019-02-16T07:32:57.581Z,16.00
2019-02-16T07:35:29.008Z,15.80
2019-02-16T07:38:00.459Z,19.20
2019-02-16T07:40:32.963Z,14.80
2019-02-16T07:43:04.449Z,18.40
2019-02-16T07:45:59.320Z,15.90
2019-02-16T07:48:45.771Z,21.13
2019-02-16T07:51:42.201Z,13.63
2019-02-16T07:54:34.020Z,11.57
2019-02-16T07:57:27.366Z,13.30
2019-02-16T08:00:23.310Z,10.37
2019-02-16T08:03:15.194Z,13.03
2019-02-16T08:05:55.675Z,9.37
2019-02-16T08:08:46.480Z,10.57
2019-02-16T08:11:51.957Z,10.30
2019-02-16T08:14:48.559Z,9.77
2019-02-16T08:17:27.053Z,9.30
2019-02-16T08:20:23.492Z,6.90
2019-02-16T08:23:03.428Z,6.37
2019-02-16T08:25:45.003Z,7.17
2019-02-16T08:28:26.829Z,7.23
2019-02-16T08:31:26.778Z,5.40
2019-02-16T08:34:20.007Z,5.23
2019-02-16T08:37:22.674Z,6.00
2019-02-16T08:40:13.122Z,5.90
2019-02-16T08:43:04.714Z,4.40
2019-02-16T08:45:55.815Z,6.60
2019-02-16T08:48:48.256Z,4.40
2019-02-16T08:51:26.904Z,4.63
2019-02-16T08:54:15.935Z,4.73
2019-02-16T08:56:54.574Z,5.63
2019-02-16T08:59:52.263Z,4.97
2019-02-16T09:02:41.336Z,5.00
2019-02-16T09:05:22.374Z,4.10
2019-02-16T09:08:18.510Z,6.03
2019-02-16T09:11:17.995Z,3.03
2019-02-16T09:13:55.079Z,4.73
2019-02-16T09:16:45.427Z,5.17
2019-02-16T09:19:50.761Z,6.00
2019-02-16T09:22:30.395Z,3.00
2019-02-16T09:25:16.976Z,3.30
2019-02-16T09:28:15.794Z,3.30
2019-02-16T09:31:15.269Z,2.90
2019-02-16T09:34:08.492Z,3.27
2019-02-16T09:36:48.118Z,3.40
2019-02-16T09:39:37.365Z,4.13
2019-02-16T09:42:23.688Z,5.27
2019-02-16T09:45:19.930Z,4.00
2019-02-16T09:48:13.595Z,2.30
2019-02-16T09:50:50.929Z,2.70
2019-02-16T09:54:07.944Z,4.83
2019-02-16T09:56:50.279Z,5.30
2019-02-16T09:59:43.452Z,5.57
2019-02-16T10:02:28.168Z,1.63
2019-02-16T10:05:17.744Z,2.30
2019-02-16T10:08:14.116Z,2.40
2019-02-16T10:11:01.924Z,5.10
2019-02-16T10:13:54.129Z,4.20
2019-02-16T10:16:32.674Z,2.67
2019-02-16T10:19:10.103Z,2.40
2019-02-16T10:21:57.320Z,2.83
2019-02-16T10:24:52.138Z,5.93
2019-02-16T10:28:00.979Z,2.13
2019-02-16T10:30:42.925Z,1.50
2019-02-16T10:33:23.920Z,1.70
2019-02-16T10:36:34.051Z,1.30
2019-02-16T10:39:21.668Z,1.93
2019-02-16T10:42:13.263Z,1.33
2019-02-16T10:44:56.084Z,2.60
2019-02-16T10:47:49.564Z,2.73
2019-02-16T10:50:39.011Z,1.00
2019-02-16T10:53:44.535Z,0.97
2019-02-16T10:56:25.230Z,1.00
2019-02-16T10:59:11.191Z,0.80
2019-02-16T11:02:04.540Z,1.27
2019-02-16T11:04:54.076Z,1.10
2019-02-16T11:07:39.636Z,1.10
2019-02-16T11:10:30.170Z,3.20
2019-02-16T11:13:23.672Z,4.80
2019-02-16T11:16:22.993Z,2.40
2019-02-16T11:19:03.486Z,2.03
2019-02-16T11:21:52.935Z,2.53
2019-02-16T11:24:42.068Z,1.40
2019-02-16T11:27:40.327Z,2.20
2019-02-16T11:30:34.073Z,2.20
2019-02-16T11:33:13.512Z,1.00
2019-02-16T11:36:12.901Z,1.67
2019-02-16T11:39:06.068Z,1.82
2019-02-16T11:41:56.451Z,4.50
2019-02-16T11:44:51.329Z,3.17
2019-02-16T11:47:48.529Z,4.37
2019-02-16T11:50:41.755Z,5.47
2019-02-16T11:53:22.807Z,2.30
2019-02-16T11:56:07.408Z,0.73
2019-02-16T11:59:02.666Z,1.00
2019-02-16T12:01:43.393Z,1.30
2019-02-16T12:04:38.597Z,1.33
2019-02-16T12:07:30.611Z,2.03
2019-02-16T12:10:36.071Z,4.20
2019-02-16T12:13:32.472Z,1.53
2019-02-16T12:16:28.753Z,1.10
2019-02-16T12:19:17.935Z,2.33
2019-02-16T12:22:06.965Z,1.53
2019-02-16T12:25:04.778Z,1.23
2019-02-16T12:27:57.012Z,1.90
2019-02-16T12:30:44.431Z,0.70
2019-02-16T12:33:34.761Z,1.37
2019-02-16T12:36:24.579Z,3.30
2019-02-16T12:39:16.267Z,1.20
2019-02-16T12:42:15.243Z,1.13
2019-02-16T12:44:56.175Z,1.90
2019-02-16T12:47:50.061Z,1.00
2019-02-16T12:50:43.155Z,1.77
2019-02-16T12:53:32.623Z,3.27
2019-02-16T12:56:21.807Z,1.00
2019-02-16T12:59:05.881Z,1.83
2019-02-16T13:01:43.653Z,4.73
2019-02-16T13:04:31.603Z,0.83
2019-02-16T13:07:13.195Z,1.00
2019-02-16T13:09:50.677Z,1.00
2019-02-16T13:12:28.107Z,2.03
2019-02-16T13:15:19.908Z,0.80
2019-02-16T13:18:09.057Z,1.40
2019-02-16T13:21:15.025Z,0.90
2019-02-16T13:24:12.200Z,2.00
2019-02-16T13:27:05.371Z,1.87
2019-02-16T13:29:46.109Z,0.90
2019-02-16T13:32:47.136Z,1.00
2019-02-16T13:35:30.665Z,0.90
2019-02-16T13:38:19.730Z,1.07
2019-02-16T13:41:15.676Z,1.87
2019-02-16T13:44:06.054Z,1.00
2019-02-16T13:46:50.720Z,1.10
2019-02-16T13:49:30.379Z,0.80
2019-02-16T13:52:38.789Z,1.30
2019-02-16T13:55:33.052Z,1.00
2019-02-16T13:58:19.471Z,1.37
2019-02-16T14:01:02.529Z,1.00
2019-02-16T14:03:48.988Z,1.03
2019-02-16T14:06:57.760Z,1.00
2019-02-16T14:09:51.075Z,1.20
2019-02-16T14:12:30.189Z,1.03
2019-02-16T14:15:08.825Z,1.00
2019-02-16T14:17:45.188Z,0.70
2019-02-16T14:20:16.671Z,0.83
2019-02-16T14:22:48.229Z,3.70
2019-02-16T14:25:31.974Z,0.97
2019-02-16T14:28:03.486Z,1.30
2019-02-16T14:30:34.968Z,2.50
2019-02-16T14:33:06.478Z,1.13
2019-02-16T14:35:38.000Z,1.03
2019-02-16T14:38:19.537Z,1.13
2019-02-16T14:40:50.805Z,4.83
2019-02-16T14:43:22.270Z,2.80
2019-02-16T14:45:55.539Z,1.10
2019-02-16T14:48:27.024Z,0.70
2019-02-16T14:50:58.512Z,1.13
2019-02-16T14:53:31.523Z,1.40
2019-02-16T14:56:05.408Z,2.80
2019-02-16T14:58:37.008Z,4.10
2019-02-16T15:01:08.427Z,1.33
2019-02-16T15:03:39.891Z,1.17
2019-02-16T15:06:11.865Z,1.30
2019-02-16T15:08:43.421Z,1.20
2019-02-16T15:11:14.890Z,1.37
2019-02-16T15:13:46.410Z,1.30
2019-02-16T15:16:17.831Z,1.27
2019-02-16T15:18:49.284Z,1.20
2019-02-16T15:21:20.743Z,1.30
2019-02-16T15:23:52.228Z,1.20
2019-02-16T15:26:28.584Z,1.27
2019-02-16T15:28:56.888Z,4.40
2019-02-16T15:31:28.329Z,2.87
2019-02-16T15:33:59.826Z,2.53
2019-02-16T15:36:31.286Z,1.83
2019-02-16T15:39:02.736Z,1.40
2019-02-16T15:41:35.771Z,4.80
2019-02-16T15:44:07.319Z,1.60
2019-02-16T15:46:39.387Z,1.40
2019-02-16T15:49:10.887Z,3.10
2019-02-16T15:51:42.322Z,3.87
2019-02-16T15:54:13.852Z,6.93
2019-02-16T15:56:45.446Z,1.50
2019-02-16T15:59:16.969Z,1.60
2019-02-16T16:01:48.728Z,3.30
2019-02-16T16:04:21.521Z,1.70
2019-02-16T16:06:53.158Z,5.27
2019-02-16T16:09:36.804Z,6.43
2019-02-16T16:12:39.405Z,2.47
2019-02-16T16:15:41.770Z,2.10
2019-02-16T16:18:30.614Z,2.50
2019-02-16T16:21:12.723Z,2.50
2019-02-16T16:24:12.245Z,2.10
2019-02-16T16:27:10.716Z,1.70
2019-02-16T16:30:16.488Z,8.80
2019-02-16T16:33:05.935Z,2.23
2019-02-16T16:36:14.852Z,6.30
2019-02-16T16:39:08.059Z,7.00
2019-02-16T16:42:00.896Z,5.90
2019-02-16T16:44:57.487Z,6.40
2019-02-16T16:47:46.093Z,9.10
2019-02-16T16:50:42.265Z,13.03
2019-02-16T16:53:31.733Z,14.50
2019-02-16T16:56:28.593Z,21.47
2019-02-16T16:59:07.327Z,6.40
2019-02-16T17:01:52.205Z,3.00
2019-02-16T17:04:29.376Z,3.00
2019-02-16T17:07:20.092Z,6.37
2019-02-16T17:10:13.130Z,3.20
2019-02-16T17:12:56.574Z,7.30
2019-02-16T17:15:40.467Z,8.97
2019-02-16T17:18:30.840Z,9.60
2019-02-16T17:21:26.981Z,11.67
2019-02-16T17:24:06.380Z,18.40
2019-02-16T17:26:52.895Z,5.53
2019-02-16T17:29:42.010Z,9.70
2019-02-16T17:32:35.440Z,14.80
2019-02-16T17:35:16.559Z,17.20
2019-02-16T17:38:12.741Z,18.70
2019-02-16T17:41:02.100Z,17.90
2019-02-16T17:43:41.908Z,22.30
2019-02-16T17:46:32.237Z,42.57
2019-02-16T17:49:21.791Z,26.93
2019-02-16T17:52:19.446Z,32.27
2019-02-16T17:55:08.541Z,25.27
2019-02-16T17:58:07.194Z,26.33
2019-02-16T18:01:03.417Z,22.80
2019-02-16T18:03:50.889Z,24.83
2019-02-16T18:06:36.522Z,31.00
2019-02-16T18:09:26.125Z,28.93
2019-02-16T18:12:06.976Z,28.77
2019-02-16T18:15:09.258Z,26.40
2019-02-16T18:17:57.597Z,23.33
2019-02-16T18:20:36.121Z,18.47
2019-02-16T18:23:20.213Z,18.83
2019-02-16T18:26:10.526Z,20.37
2019-02-16T18:29:10.022Z,25.17
2019-02-16T18:32:01.053Z,23.57
2019-02-16T18:35:03.036Z,21.53
2019-02-16T18:37:52.208Z,21.30
2019-02-16T18:40:38.937Z,21.43
2019-02-16T18:43:22.327Z,20.57
2019-02-16T18:46:02.449Z,23.20
2019-02-16T18:48:51.709Z,18.23
2019-02-16T18:51:48.170Z,21.10
2019-02-16T18:54:34.950Z,26.33
2019-02-16T18:57:28.329Z,28.87
2019-02-16T19:00:07.933Z,24.23
2019-02-16T19:02:46.504Z,27.83
2019-02-16T19:05:46.148Z,28.50
2019-02-16T19:08:45.243Z,26.10
2019-02-16T19:11:38.344Z,24.50
2019-02-16T19:14:25.115Z,28.10
2019-02-16T19:17:07.625Z,25.40
2019-02-16T19:20:04.376Z,26.20
2019-02-16T19:22:53.826Z,27.10
2019-02-16T19:25:38.899Z,28.90
2019-02-16T19:28:27.901Z,27.20
2019-02-16T19:31:10.063Z,23.50
2019-02-16T19:33:59.243Z,22.77
2019-02-16T19:36:45.233Z,29.17
2019-02-16T19:39:22.177Z,32.90
2019-02-16T19:42:30.936Z,28.53
2019-02-16T19:45:39.336Z,28.23
2019-02-16T19:48:44.857Z,30.60
2019-02-16T19:51:41.265Z,32.47
2019-02-16T19:54:40.808Z,29.40
2019-02-16T19:57:29.994Z,25.07
2019-02-16T20:00:19.281Z,24.90
2019-02-16T20:03:18.928Z,29.40
2019-02-16T20:06:18.103Z,20.57
2019-02-16T20:09:01.344Z,25.83
2019-02-16T20:11:52.035Z,33.33
2019-02-16T20:15:00.702Z,25.20
2019-02-16T20:17:48.815Z,37.23
2019-02-16T20:20:32.687Z,29.33
2019-02-16T20:23:21.933Z,24.33
2019-02-16T20:26:14.414Z,29.90
2019-02-16T20:29:07.771Z,25.97
2019-02-16T20:31:46.273Z,25.23
2019-02-16T20:34:39.426Z,23.47
2019-02-16T20:37:20.173Z,22.03
2019-02-16T20:40:13.066Z,23.23
2019-02-16T20:43:00.390Z,22.00
2019-02-16T20:45:43.891Z,21.93
2019-02-16T20:48:33.053Z,27.17
2019-02-16T20:51:20.701Z,24.87
2019-02-16T20:54:07.331Z,18.90
2019-02-16T20:56:53.808Z,22.63
2019-02-16T20:59:50.469Z,22.30
2019-02-16T21:02:58.899Z,20.87
2019-02-16T21:05:48.028Z,15.77
2019-02-16T21:08:41.103Z,22.83
2019-02-16T21:11:34.217Z,21.30
2019-02-16T21:14:24.582Z,16.57
2019-02-16T21:17:03.568Z,23.50
2019-02-16T21:19:52.869Z,19.93
2019-02-16T21:22:43.767Z,14.50
2019-02-16T21:25:40.524Z,23.70
2019-02-16T21:28:26.341Z,17.07
2019-02-16T21:31:12.385Z,16.87
2019-02-16T21:33:51.953Z,18.10
2019-02-16T21:36:45.607Z,14.23
2019-02-16T21:39:35.969Z,16.03
2019-02-16T21:42:35.673Z,14.63
2019-02-16T21:45:16.467Z,14.10
2019-02-16T21:48:04.267Z,11.27
2019-02-16T21:50:50.407Z,15.13
2019-02-16T21:53:46.875Z,14.67
2019-02-16T21:56:26.620Z,14.03
2019-02-16T21:59:19.271Z,12.77
2019-02-16T22:01:57.525Z,13.47
2019-02-16T22:04:50.849Z,14.30
2019-02-16T22:07:51.977Z,11.87
2019-02-16T22:10:51.119Z,12.47
2019-02-16T22:13:22.627Z,15.53
2019-02-16T22:15:56.144Z,16.20
2019-02-16T22:18:27.570Z,16.30
2019-02-16T22:20:59.068Z,17.03
2019-02-16T22:23:32.120Z,26.30
2019-02-16T22:26:03.571Z,17.47
2019-02-16T22:28:35.037Z,22.10
2019-02-16T22:31:06.538Z,20.93
2019-02-16T22:33:37.978Z,18.67
2019-02-16T22:36:11.738Z,15.50
2019-02-16T22:38:43.938Z,22.20
2019-02-16T22:41:15.593Z,17.10
2019-02-16T22:43:47.031Z,18.97
2019-02-16T22:46:18.417Z,13.90
2019-02-16T22:48:49.881Z,13.47
2019-02-16T22:51:21.342Z,12.07
2019-02-16T22:53:53.836Z,11.80
2019-02-16T22:56:26.341Z,12.47
2019-02-16T22:58:57.789Z,10.00
2019-02-16T23:01:30.116Z,14.27
2019-02-16T23:04:01.724Z,10.50
2019-02-16T23:06:33.201Z,12.53
2019-02-16T23:09:13.011Z,12.60
2019-02-16T23:11:46.090Z,9.57
2019-02-16T23:14:17.706Z,12.90
2019-02-16T23:16:49.127Z,10.73
2019-02-16T23:19:20.563Z,12.60
2019-02-16T23:21:52.039Z,10.07
2019-02-16T23:24:23.490Z,11.10
2019-02-16T23:26:54.947Z,12.37
2019-02-16T23:29:26.453Z,11.47
2019-02-16T23:31:57.858Z,11.70
2019-02-16T23:34:29.340Z,9.90
2019-02-16T23:37:00.757Z,11.43
2019-02-16T23:39:32.207Z,10.37
2019-02-16T23:42:03.729Z,11.87
2019-02-16T23:44:35.141Z,9.73
2019-02-16T23:47:06.597Z,11.47
2019-02-16T23:49:38.005Z,11.03
2019-02-16T23:52:09.487Z,12.03
2019-02-16T23:54:40.891Z,9.60
2019-02-16T23:57:12.359Z,12.83
2019-02-16T23:59:43.977Z,14.47
